createdAt,value
2022-12-18T00:01:20.396Z,85.80
2022-12-18T00:03:48.149Z,85.74
2022-12-18T00:06:15.611Z,85.63
2022-12-18T00:08:57.992Z,85.67
2022-12-18T00:11:26.855Z,85.36
2022-12-18T00:13:55.590Z,85.40
2022-12-18T00:16:23.979Z,85.44
2022-12-18T00:18:53.323Z,85.38
2022-12-18T00:21:21.003Z,85.35
2022-12-18T00:23:49.845Z,85.35
2022-12-18T00:26:19.905Z,85.44
2022-12-18T00:28:47.093Z,85.38
2022-12-18T00:31:16.502Z,85.30
2022-12-18T00:33:44.520Z,85.36
2022-12-18T00:36:18.367Z,85.22
2022-12-18T00:38:45.723Z,85.25
2022-12-18T00:41:14.657Z,85.40
2022-12-18T00:43:41.572Z,85.36
2022-12-18T00:46:08.500Z,85.17
2022-12-18T00:48:38.209Z,85.37
2022-12-18T00:51:04.893Z,85.16
2022-12-18T00:53:31.549Z,85.09
2022-12-18T00:55:58.146Z,85.02
2022-12-18T00:58:24.774Z,84.87
2022-12-18T01:00:51.414Z,84.93
2022-12-18T01:03:18.105Z,85.04
2022-12-18T01:05:44.727Z,84.96
2022-12-18T01:08:11.375Z,85.06
2022-12-18T01:10:41.918Z,85.07
2022-12-18T01:13:09.024Z,85.01
2022-12-18T01:15:35.956Z,84.92
2022-12-18T01:18:02.524Z,84.85
2022-12-18T01:20:29.153Z,84.78
2022-12-18T01:22:55.815Z,84.90
2022-12-18T01:25:22.440Z,84.97
2022-12-18T01:27:48.952Z,84.80
2022-12-18T01:30:16.006Z,84.81
2022-12-18T01:32:42.631Z,84.82
2022-12-18T01:35:09.444Z,84.61
2022-12-18T01:37:36.053Z,84.60
2022-12-18T01:40:02.655Z,84.57
2022-12-18T01:42:29.236Z,84.71
2022-12-18T01:44:58.692Z,84.79
2022-12-18T01:48:00.925Z,84.72
2022-12-18T01:50:35.509Z,84.69
2022-12-18T01:53:21.851Z,84.40
2022-12-18T01:55:53.825Z,84.59
2022-12-18T01:58:28.369Z,84.55
2022-12-18T02:00:56.211Z,84.54
2022-12-18T02:03:23.105Z,84.44
2022-12-18T02:05:58.713Z,84.68
2022-12-18T02:08:37.501Z,84.45
2022-12-18T02:11:51.923Z,84.47
2022-12-18T02:14:27.266Z,84.36
2022-12-18T02:16:59.715Z,84.59
2022-12-18T02:19:44.278Z,84.50
2022-12-18T02:22:35.574Z,84.70
2022-12-18T02:25:11.442Z,84.61
2022-12-18T02:27:40.256Z,84.80
2022-12-18T02:30:09.177Z,84.73
2022-12-18T02:32:41.113Z,84.93
2022-12-18T02:35:14.019Z,84.76
2022-12-18T02:37:43.461Z,84.61
2022-12-18T02:40:12.305Z,84.54
2022-12-18T02:42:38.944Z,84.52
2022-12-18T02:45:06.071Z,84.33
2022-12-18T02:47:37.979Z,84.17
2022-12-18T02:50:36.920Z,84.23
2022-12-18T02:53:23.981Z,84.44
2022-12-18T02:56:05.274Z,84.38
2022-12-18T02:59:03.417Z,84.39
2022-12-18T03:01:41.121Z,84.35
2022-12-18T03:04:17.950Z,84.42
2022-12-18T03:06:50.381Z,84.50
2022-12-18T03:09:25.567Z,84.46
2022-12-18T03:12:25.091Z,84.69
2022-12-18T03:15:14.576Z,84.47
2022-12-18T03:17:49.815Z,84.58
2022-12-18T03:20:20.647Z,84.77
2022-12-18T03:22:52.784Z,84.60
2022-12-18T03:25:20.199Z,84.58
2022-12-18T03:27:55.268Z,84.54
2022-12-18T03:30:22.103Z,84.73
2022-12-18T03:32:51.590Z,84.74
2022-12-18T03:35:25.347Z,84.91
2022-12-18T03:37:52.138Z,85.05
2022-12-18T03:40:21.663Z,84.88
2022-12-18T03:42:51.655Z,85.07
2022-12-18T03:45:27.606Z,85.10
2022-12-18T03:48:09.239Z,85.13
2022-12-18T03:50:50.857Z,85.13
2022-12-18T03:53:24.395Z,85.20
2022-12-18T03:55:52.662Z,85.19
2022-12-18T03:58:24.364Z,85.22
2022-12-18T04:00:54.782Z,85.10
2022-12-18T04:03:26.349Z,85.01
2022-12-18T04:05:56.355Z,85.09
2022-12-18T04:08:24.990Z,85.14
2022-12-18T04:10:51.574Z,85.15
2022-12-18T04:13:36.256Z,85.33
2022-12-18T04:16:03.760Z,85.22
2022-12-18T04:18:31.131Z,85.23
2022-12-18T04:20:58.100Z,85.12
2022-12-18T04:23:24.692Z,85.20
2022-12-18T04:25:51.346Z,85.17
2022-12-18T04:28:18.242Z,85.14
2022-12-18T04:30:44.911Z,85.12
2022-12-18T04:33:13.547Z,85.23
2022-12-18T04:35:41.216Z,85.16
2022-12-18T04:38:11.993Z,85.29
2022-12-18T04:40:39.216Z,85.37
2022-12-18T04:43:06.655Z,85.35
2022-12-18T04:45:33.663Z,85.31
2022-12-18T04:48:01.942Z,85.51
2022-12-18T04:50:29.177Z,85.52
2022-12-18T04:52:55.838Z,85.55
2022-12-18T04:55:22.628Z,85.46
2022-12-18T04:57:49.251Z,85.61
2022-12-18T05:00:16.125Z,85.76
2022-12-18T05:02:42.909Z,85.63
2022-12-18T05:05:09.750Z,85.65
2022-12-18T05:07:36.759Z,85.59
2022-12-18T05:10:05.982Z,85.63
2022-12-18T05:12:32.983Z,85.63
2022-12-18T05:14:59.591Z,85.63
2022-12-18T05:17:26.252Z,85.62
2022-12-18T05:19:52.892Z,85.58
2022-12-18T05:22:19.491Z,85.62
2022-12-18T05:24:46.041Z,85.79
2022-12-18T05:27:12.601Z,85.81
2022-12-18T05:29:39.234Z,85.76
2022-12-18T05:32:05.832Z,85.81
2022-12-18T05:34:32.349Z,85.91
2022-12-18T05:36:59.138Z,86.01
2022-12-18T05:39:25.875Z,85.94
2022-12-18T05:41:52.533Z,85.80
2022-12-18T05:44:19.159Z,85.87
2022-12-18T05:46:45.819Z,85.86
2022-12-18T05:49:12.604Z,85.94
2022-12-18T05:51:39.237Z,85.91
2022-12-18T05:54:06.046Z,85.79
2022-12-18T05:56:33.246Z,85.88
2022-12-18T05:58:59.881Z,85.75
2022-12-18T06:01:27.714Z,86.01
2022-12-18T06:03:55.155Z,85.92
2022-12-18T06:06:26.639Z,85.92
2022-12-18T06:08:54.685Z,85.99
2022-12-18T06:11:24.374Z,85.85
2022-12-18T06:13:58.285Z,85.75
2022-12-18T06:16:25.515Z,85.91
2022-12-18T06:18:52.196Z,85.91
2022-12-18T06:21:19.046Z,85.85
2022-12-18T06:23:45.701Z,85.84
2022-12-18T06:26:13.353Z,85.70
2022-12-18T06:28:40.692Z,86.00
2022-12-18T06:31:09.403Z,85.84
2022-12-18T06:33:37.353Z,86.00
2022-12-18T06:36:08.345Z,85.82
2022-12-18T06:38:36.101Z,85.90
2022-12-18T06:41:08.958Z,85.92
2022-12-18T06:43:35.668Z,85.91
2022-12-18T06:46:03.508Z,86.03
2022-12-18T06:48:31.837Z,86.20
2022-12-18T06:50:59.136Z,86.21
2022-12-18T06:53:25.955Z,86.06
2022-12-18T06:55:52.681Z,86.11
2022-12-18T06:58:19.335Z,85.97
2022-12-18T07:00:46.032Z,86.00
2022-12-18T07:03:12.738Z,86.08
2022-12-18T07:05:43.406Z,85.69
2022-12-18T07:08:10.115Z,85.78
2022-12-18T07:10:47.507Z,85.92
2022-12-18T07:13:17.978Z,85.81
2022-12-18T07:15:44.900Z,85.87
2022-12-18T07:18:14.874Z,85.83
2022-12-18T07:20:41.967Z,85.59
2022-12-18T07:23:21.090Z,85.63
2022-12-18T07:25:47.694Z,85.67
2022-12-18T07:28:17.650Z,85.69
2022-12-18T07:30:44.410Z,85.71
2022-12-18T07:33:11.099Z,85.70
2022-12-18T07:35:37.769Z,85.75
2022-12-18T07:38:06.409Z,85.52
2022-12-18T07:40:35.091Z,85.41
2022-12-18T07:43:01.815Z,85.28
2022-12-18T07:45:32.498Z,85.34
2022-12-18T07:48:00.103Z,85.11
2022-12-18T07:50:27.869Z,84.89
2022-12-18T07:52:57.839Z,84.77
2022-12-18T07:56:18.383Z,84.72
2022-12-18T07:58:35.706Z,84.77
2022-12-18T08:01:10.062Z,84.54
2022-12-18T08:04:21.376Z,84.53
2022-12-18T08:06:50.260Z,84.35
2022-12-18T08:09:19.439Z,84.42
2022-12-18T08:11:48.762Z,84.25
2022-12-18T08:14:15.853Z,84.17
2022-12-18T08:16:43.550Z,83.82
2022-12-18T08:19:17.717Z,84.05
2022-12-18T08:21:44.550Z,83.91
2022-12-18T08:24:12.037Z,83.88
2022-12-18T08:26:38.738Z,83.72
2022-12-18T08:29:05.438Z,83.76
2022-12-18T08:31:34.082Z,83.86
2022-12-18T08:34:01.207Z,83.89
2022-12-18T08:36:29.874Z,83.59
2022-12-18T08:38:58.410Z,83.45
2022-12-18T08:41:26.021Z,83.40
2022-12-18T08:44:11.201Z,83.25
2022-12-18T08:46:41.468Z,82.91
2022-12-18T08:49:10.679Z,82.72
2022-12-18T08:51:38.265Z,82.36
2022-12-18T08:54:06.795Z,82.11
2022-12-18T08:56:35.358Z,82.08
2022-12-18T08:59:02.426Z,82.13
2022-12-18T09:01:31.323Z,81.94
2022-12-18T09:03:58.661Z,81.72
2022-12-18T09:06:25.462Z,81.63
2022-12-18T09:08:52.101Z,81.49
2022-12-18T09:11:26.536Z,81.26
2022-12-18T09:13:55.029Z,81.29
2022-12-18T09:16:27.369Z,81.20
2022-12-18T09:19:02.532Z,80.77
2022-12-18T09:21:32.887Z,80.67
2022-12-18T09:24:03.815Z,80.59
2022-12-18T09:26:33.748Z,80.47
2022-12-18T09:29:00.513Z,80.17
2022-12-18T09:31:27.341Z,79.84
2022-12-18T09:33:57.260Z,79.63
2022-12-18T09:36:23.921Z,79.45
2022-12-18T09:38:50.753Z,79.33
2022-12-18T09:41:44.215Z,79.00
2022-12-18T09:44:25.205Z,78.99
2022-12-18T09:47:08.822Z,78.83
2022-12-18T09:49:48.840Z,78.61
2022-12-18T09:52:37.039Z,78.38
2022-12-18T09:55:14.936Z,78.55
2022-12-18T09:58:45.653Z,78.60
2022-12-18T10:01:24.503Z,78.36
2022-12-18T10:03:53.139Z,78.45
2022-12-18T10:06:52.104Z,78.33
2022-12-18T10:09:24.391Z,78.80
2022-12-18T10:12:09.636Z,79.01
2022-12-18T10:14:48.577Z,79.07
2022-12-18T10:17:27.579Z,78.89
2022-12-18T10:20:00.684Z,78.80
2022-12-18T10:22:52.639Z,79.02
2022-12-18T10:25:27.959Z,78.98
2022-12-18T10:27:59.456Z,78.89
2022-12-18T10:30:27.157Z,78.85
2022-12-18T10:32:55.209Z,78.63
2022-12-18T10:35:27.868Z,78.63
2022-12-18T10:38:23.726Z,78.43
2022-12-18T10:40:56.146Z,78.59
2022-12-18T10:43:26.501Z,78.84
2022-12-18T10:46:04.932Z,78.75
2022-12-18T10:48:34.162Z,78.78
2022-12-18T10:51:10.764Z,78.60
2022-12-18T10:53:42.940Z,78.67
2022-12-18T10:56:09.930Z,78.50
2022-12-18T10:58:39.144Z,78.70
2022-12-18T11:01:07.523Z,78.43
2022-12-18T11:03:43.082Z,77.94
2022-12-18T11:06:12.589Z,78.15
2022-12-18T11:08:40.401Z,78.18
2022-12-18T11:11:23.435Z,77.74
2022-12-18T11:13:56.419Z,77.44
2022-12-18T11:16:23.246Z,77.79
2022-12-18T11:18:50.019Z,78.15
2022-12-18T11:21:17.283Z,77.79
2022-12-18T11:23:53.172Z,77.77
2022-12-18T11:26:22.551Z,77.58
2022-12-18T11:28:53.393Z,77.40
2022-12-18T11:31:25.401Z,77.08
2022-12-18T11:36:51.100Z,76.66
2022-12-18T11:39:43.601Z,76.49
2022-12-18T11:42:48.705Z,76.49
2022-12-18T11:45:15.330Z,76.82
2022-12-18T11:47:58.861Z,76.42
2022-12-18T11:50:31.037Z,76.47
2022-12-18T11:53:02.857Z,76.61
2022-12-18T11:55:47.247Z,76.49
2022-12-18T11:58:20.179Z,76.98
2022-12-18T12:01:25.492Z,76.96
2022-12-18T12:04:10.162Z,76.87
2022-12-18T12:07:03.414Z,76.90
2022-12-18T12:09:52.156Z,77.11
2022-12-18T12:12:50.270Z,77.22
2022-12-18T12:15:37.027Z,77.58
2022-12-18T12:18:17.262Z,77.93
2022-12-18T12:20:54.795Z,77.88
2022-12-18T12:23:44.886Z,77.87
2022-12-18T12:26:31.340Z,77.46
2022-12-18T12:29:10.375Z,77.49
2022-12-18T12:31:58.809Z,77.78
2022-12-18T12:34:42.534Z,77.92
2022-12-18T12:38:06.695Z,78.01
2022-12-18T12:40:53.450Z,77.86
2022-12-18T12:43:29.080Z,77.67
2022-12-18T12:46:03.664Z,77.64
2022-12-18T12:48:30.854Z,77.58
2022-12-18T12:50:59.904Z,77.82
2022-12-18T12:53:34.883Z,77.95
2022-12-18T12:56:05.258Z,78.01
2022-12-18T12:58:51.365Z,77.94
2022-12-18T13:01:24.378Z,78.10
2022-12-18T13:04:00.293Z,78.20
2022-12-18T13:06:42.996Z,78.40
2022-12-18T13:09:11.692Z,78.12
2022-12-18T13:12:01.000Z,78.05
2022-12-18T13:14:29.881Z,78.04
2022-12-18T13:17:17.210Z,78.34
2022-12-18T13:19:44.453Z,78.28
2022-12-18T13:22:37.966Z,78.61
2022-12-18T13:25:30.691Z,78.98
2022-12-18T13:28:10.341Z,79.02
2022-12-18T13:30:36.941Z,78.98
2022-12-18T13:33:15.726Z,79.38
2022-12-18T13:36:02.510Z,79.69
2022-12-18T13:38:31.995Z,79.67
2022-12-18T13:41:19.654Z,79.85
2022-12-18T13:44:30.599Z,79.78
2022-12-18T13:46:58.139Z,80.11
2022-12-18T13:49:42.626Z,80.15
2022-12-18T13:52:21.841Z,80.16
2022-12-18T13:54:52.734Z,80.30
2022-12-18T13:57:31.657Z,80.30
2022-12-18T13:59:59.675Z,80.49
2022-12-18T14:02:29.234Z,80.39
2022-12-18T14:04:56.498Z,80.47
2022-12-18T14:07:26.287Z,80.33
2022-12-18T14:10:06.416Z,80.55
2022-12-18T14:12:57.915Z,80.39
2022-12-18T14:15:32.966Z,80.81
2022-12-18T14:18:04.267Z,80.99
2022-12-18T14:20:33.543Z,81.21
2022-12-18T14:23:01.343Z,81.32
2022-12-18T14:25:30.454Z,81.45
2022-12-18T14:28:09.466Z,81.50
2022-12-18T14:30:44.627Z,81.60
2022-12-18T14:33:13.930Z,81.61
2022-12-18T14:35:43.561Z,81.62
2022-12-18T14:38:11.617Z,81.54
2022-12-18T14:40:38.275Z,81.63
2022-12-18T14:43:04.811Z,82.29
2022-12-18T14:45:43.837Z,82.54
2022-12-18T14:48:13.835Z,82.81
2022-12-18T14:50:42.591Z,83.24
2022-12-18T14:53:29.154Z,83.67
2022-12-18T14:55:55.886Z,84.05
2022-12-18T14:58:23.128Z,84.50
2022-12-18T15:00:50.009Z,84.55
2022-12-18T15:03:22.523Z,84.75
2022-12-18T15:05:50.083Z,84.99
2022-12-18T15:08:32.183Z,85.07
2022-12-18T15:10:59.645Z,85.13
2022-12-18T15:13:26.349Z,85.34
2022-12-18T15:15:55.765Z,85.41
2022-12-18T15:18:30.809Z,85.40
2022-12-18T15:21:08.608Z,85.27
2022-12-18T15:23:52.467Z,85.08
2022-12-18T15:26:21.859Z,85.25
2022-12-18T15:28:53.980Z,85.33
2022-12-18T15:31:23.868Z,85.14
2022-12-18T15:33:54.084Z,85.15
2022-12-18T15:36:32.103Z,85.17
2022-12-18T15:39:04.206Z,85.37
2022-12-18T15:41:35.829Z,85.40
2022-12-18T15:44:03.410Z,85.38
2022-12-18T15:46:31.994Z,85.15
2022-12-18T15:49:02.158Z,85.15
2022-12-18T15:51:33.422Z,85.15
2022-12-18T15:54:02.983Z,85.06
2022-12-18T15:56:48.058Z,84.97
2022-12-18T15:59:19.077Z,84.73
2022-12-18T16:01:49.157Z,85.04
2022-12-18T16:04:18.432Z,85.09
2022-12-18T16:07:13.171Z,85.05
2022-12-18T16:09:34.322Z,85.23
2022-12-18T16:12:01.055Z,85.27
2022-12-18T16:14:30.023Z,85.02
2022-12-18T16:17:06.679Z,84.75
2022-12-18T16:19:33.286Z,84.78
2022-12-18T16:22:00.044Z,85.00
2022-12-18T16:24:30.851Z,85.18
2022-12-18T16:27:00.295Z,85.38
2022-12-18T16:29:29.852Z,85.48
2022-12-18T16:31:58.451Z,85.59
2022-12-18T16:34:29.331Z,85.63
2022-12-18T16:37:06.926Z,85.48
2022-12-18T16:39:35.580Z,85.52
2022-12-18T16:42:05.960Z,85.69
2022-12-18T16:44:33.974Z,85.79
2022-12-18T16:47:02.897Z,85.66
2022-12-18T16:49:30.625Z,85.90
2022-12-18T16:51:57.450Z,85.95
2022-12-18T16:54:24.254Z,85.82
2022-12-18T16:56:52.248Z,85.95
2022-12-18T16:59:19.283Z,85.77
2022-12-18T17:01:46.958Z,85.67
2022-12-18T17:04:13.723Z,85.64
2022-12-18T17:06:42.895Z,85.64
2022-12-18T17:09:12.950Z,85.54
2022-12-18T17:11:39.630Z,85.77
2022-12-18T17:14:07.814Z,85.78
2022-12-18T17:16:34.537Z,86.01
2022-12-18T17:19:01.717Z,85.74
2022-12-18T17:21:30.228Z,85.76
2022-12-18T17:24:00.601Z,85.53
2022-12-18T17:26:27.424Z,85.89
2022-12-18T17:28:56.713Z,85.80
2022-12-18T17:31:25.429Z,86.02
2022-12-18T17:33:53.541Z,86.09
2022-12-18T17:36:20.875Z,86.34
2022-12-18T17:38:56.200Z,86.39
2022-12-18T17:41:23.935Z,86.68
2022-12-18T17:43:55.389Z,87.03
2022-12-18T17:46:22.480Z,87.17
2022-12-18T17:48:49.247Z,87.40
2022-12-18T17:51:18.234Z,87.48
2022-12-18T17:53:45.258Z,87.69
2022-12-18T17:56:14.340Z,87.89
2022-12-18T17:58:42.014Z,88.00
2022-12-18T18:01:16.080Z,88.10
2022-12-18T18:03:44.075Z,88.11
2022-12-18T18:06:11.422Z,88.27
2022-12-18T18:08:37.972Z,88.48
2022-12-18T18:11:25.534Z,88.49
2022-12-18T18:14:01.150Z,88.54
2022-12-18T18:16:36.774Z,88.69
2022-12-18T18:19:06.682Z,88.62
2022-12-18T18:21:34.215Z,88.85
2022-12-18T18:24:03.189Z,88.70
2022-12-18T18:26:34.004Z,88.75
2022-12-18T18:29:03.330Z,88.70
2022-12-18T18:31:32.778Z,88.82
2022-12-18T18:34:02.440Z,88.86
2022-12-18T18:36:29.301Z,88.79
2022-12-18T18:39:00.334Z,89.08
2022-12-18T18:41:27.472Z,88.90
2022-12-18T18:43:58.381Z,89.06
2022-12-18T18:46:25.804Z,89.04
2022-12-18T18:48:52.757Z,89.06
2022-12-18T18:51:21.506Z,89.19
2022-12-18T18:53:50.643Z,89.13
2022-12-18T18:59:07.010Z,89.19
2022-12-18T19:01:34.036Z,89.25
2022-12-18T19:04:03.666Z,89.43
2022-12-18T19:06:30.281Z,89.44
2022-12-18T19:08:58.635Z,89.52
2022-12-18T19:11:44.530Z,89.53
2022-12-18T19:14:13.377Z,89.49
2022-12-18T19:16:40.722Z,89.51
2022-12-18T19:19:07.939Z,89.50
2022-12-18T19:21:35.370Z,89.41
2022-12-18T19:24:02.845Z,89.48
2022-12-18T19:26:29.773Z,89.55
2022-12-18T19:29:08.078Z,89.56
2022-12-18T19:31:36.965Z,89.69
2022-12-18T19:34:06.803Z,89.77
2022-12-18T19:36:35.520Z,89.62
2022-12-18T19:39:02.471Z,89.60
2022-12-18T19:41:31.607Z,89.82
2022-12-18T19:43:59.724Z,89.74
2022-12-18T19:46:26.367Z,89.85
2022-12-18T19:48:53.752Z,89.84
2022-12-18T19:51:23.046Z,89.77
2022-12-18T19:53:53.697Z,89.81
2022-12-18T19:56:26.432Z,89.69
2022-12-18T19:58:54.493Z,89.68
2022-12-18T20:01:24.020Z,89.66
2022-12-18T20:03:51.601Z,89.72
2022-12-18T20:06:30.905Z,89.79
2022-12-18T20:09:01.168Z,89.79
2022-12-18T20:11:29.855Z,89.63
2022-12-18T20:13:57.455Z,89.55
2022-12-18T20:16:41.859Z,89.57
2022-12-18T20:19:10.792Z,89.37
2022-12-18T20:21:37.519Z,89.45
2022-12-18T20:24:04.359Z,89.40
2022-12-18T20:26:31.193Z,89.39
2022-12-18T20:28:57.859Z,89.54
2022-12-18T20:31:24.721Z,89.52
2022-12-18T20:33:52.206Z,89.56
2022-12-18T20:36:22.465Z,89.71
2022-12-18T20:38:57.280Z,89.88
2022-12-18T20:41:26.300Z,90.01
2022-12-18T20:43:58.280Z,90.12
2022-12-18T20:46:25.120Z,90.18
2022-12-18T20:48:51.936Z,90.30
2022-12-18T20:51:21.444Z,90.41
2022-12-18T20:53:48.512Z,90.26
2022-12-18T20:56:21.595Z,90.31
2022-12-18T20:58:49.863Z,90.21
2022-12-18T21:01:20.139Z,90.05
2022-12-18T21:03:47.487Z,90.16
2022-12-18T21:06:16.527Z,90.20
2022-12-18T21:08:44.096Z,90.06
2022-12-18T21:11:38.869Z,90.01
2022-12-18T21:14:09.553Z,89.96
2022-12-18T21:16:37.655Z,89.95
2022-12-18T21:19:04.249Z,89.85
2022-12-18T21:21:36.537Z,89.87
2022-12-18T21:24:06.575Z,89.86
2022-12-18T21:26:33.768Z,89.69
2022-12-18T21:29:03.523Z,89.76
2022-12-18T21:31:33.351Z,89.75
2022-12-18T21:34:02.208Z,89.73
2022-12-18T21:36:31.093Z,89.61
2022-12-18T21:38:58.791Z,89.67
2022-12-18T21:41:44.865Z,89.76
2022-12-18T21:44:17.080Z,89.81
2022-12-18T21:46:51.364Z,89.66
2022-12-18T21:49:21.744Z,89.72
2022-12-18T21:51:54.788Z,89.67
2022-12-18T21:54:22.000Z,89.80
2022-12-18T21:56:54.410Z,89.81
2022-12-18T21:59:29.771Z,89.80
2022-12-18T22:01:59.352Z,89.83
2022-12-18T22:04:27.085Z,89.88
2022-12-18T22:06:54.284Z,89.93
2022-12-18T22:09:23.434Z,89.93
2022-12-18T22:11:50.953Z,89.83
2022-12-18T22:14:18.046Z,89.85
2022-12-18T22:16:44.754Z,89.87
2022-12-18T22:19:12.532Z,89.81
2022-12-18T22:21:43.933Z,89.71
2022-12-18T22:24:19.565Z,89.71
2022-12-18T22:26:46.536Z,89.73
2022-12-18T22:29:40.135Z,89.65
2022-12-18T22:32:09.019Z,89.68
2022-12-18T22:34:39.425Z,89.80
2022-12-18T22:37:06.167Z,89.72
2022-12-18T22:39:33.256Z,89.72
2022-12-18T22:42:00.346Z,89.76
2022-12-18T22:44:27.679Z,89.79
2022-12-18T22:47:06.353Z,89.82
2022-12-18T22:49:35.547Z,89.78
2022-12-18T22:52:04.016Z,89.85
2022-12-18T22:54:30.728Z,89.91
2022-12-18T22:56:57.765Z,89.92
2022-12-18T22:59:24.796Z,89.74
2022-12-18T23:01:57.112Z,89.66
2022-12-18T23:04:35.859Z,89.78
2022-12-18T23:07:05.237Z,89.74
2022-12-18T23:09:32.833Z,89.71
2022-12-18T23:11:59.689Z,89.80
2022-12-18T23:14:26.547Z,89.83
2022-12-18T23:16:53.356Z,89.62
2022-12-18T23:19:21.064Z,89.75
2022-12-18T23:21:50.030Z,89.91
2022-12-18T23:24:16.596Z,89.77
2022-12-18T23:26:43.391Z,89.86
2022-12-18T23:29:10.991Z,89.87
2022-12-18T23:31:39.583Z,89.86
2022-12-18T23:34:06.927Z,89.76
2022-12-18T23:36:42.038Z,89.82
2022-12-18T23:39:17.959Z,89.85
2022-12-18T23:41:56.339Z,89.96
2022-12-18T23:44:24.003Z,89.89
2022-12-18T23:46:50.745Z,90.05
2022-12-18T23:49:19.360Z,90.02
2022-12-18T23:51:45.933Z,90.11
2022-12-18T23:54:12.594Z,90.06
2022-12-18T23:56:39.154Z,90.04
2022-12-18T23:59:05.710Z,89.94
